sensor_id;sensor_type;location;lat;lon;timestamp;P1;durP1;ratioP1;P2;durP2;ratioP2
22007;SDS011;11168;56.976;24.168;2022-08-19T00:01:43;18.48;;;10.50;;
22007;SDS011;11168;56.976;24.168;2022-08-19T00:04:18;17.13;;;11.13;;
22007;SDS011;11168;56.976;24.168;2022-08-19T00:06:46;19.15;;;10.70;;
22007;SDS011;11168;56.976;24.168;2022-08-19T00:09:15;15.10;;;10.50;;
22007;SDS011;11168;56.976;24.168;2022-08-19T00:11:43;15.48;;;10.57;;
22007;SDS011;11168;56.976;24.168;2022-08-19T00:14:12;17.30;;;10.55;;
22007;SDS011;11168;56.976;24.168;2022-08-19T00:16:41;19.65;;;11.30;;
22007;SDS011;11168;56.976;24.168;2022-08-19T00:19:09;22.30;;;11.10;;
22007;SDS011;11168;56.976;24.168;2022-08-19T00:21:37;22.10;;;10.32;;
22007;SDS011;11168;56.976;24.168;2022-08-19T00:24:06;18.85;;;10.60;;
22007;SDS011;11168;56.976;24.168;2022-08-19T00:26:34;18.75;;;11.27;;
22007;SDS011;11168;56.976;24.168;2022-08-19T00:29:02;22.80;;;11.25;;
22007;SDS011;11168;56.976;24.168;2022-08-19T00:31:29;26.35;;;11.48;;
22007;SDS011;11168;56.976;24.168;2022-08-19T00:33:57;15.88;;;10.82;;
22007;SDS011;11168;56.976;24.168;2022-08-19T00:36:25;16.17;;;10.63;;
22007;SDS011;11168;56.976;24.168;2022-08-19T00:38:52;22.58;;;10.90;;
22007;SDS011;11168;56.976;24.168;2022-08-19T00:41:20;14.77;;;10.45;;
22007;SDS011;11168;56.976;24.168;2022-08-19T00:46:26;22.70;;;10.52;;
22007;SDS011;11168;56.976;24.168;2022-08-19T00:48:53;17.42;;;10.65;;
22007;SDS011;11168;56.976;24.168;2022-08-19T00:51:21;19.48;;;10.57;;
22007;SDS011;11168;56.976;24.168;2022-08-19T00:53:53;18.00;;;10.60;;
22007;SDS011;11168;56.976;24.168;2022-08-19T00:56:21;16.70;;;10.55;;
22007;SDS011;11168;56.976;24.168;2022-08-19T00:58:49;16.23;;;10.70;;
22007;SDS011;11168;56.976;24.168;2022-08-19T01:01:16;17.00;;;10.52;;
22007;SDS011;11168;56.976;24.168;2022-08-19T01:03:44;27.27;;;11.20;;
22007;SDS011;11168;56.976;24.168;2022-08-19T01:06:24;18.58;;;11.20;;
22007;SDS011;11168;56.976;24.168;2022-08-19T01:08:51;20.75;;;11.27;;
22007;SDS011;11168;56.976;24.168;2022-08-19T01:11:18;18.73;;;10.57;;
22007;SDS011;11168;56.976;24.168;2022-08-19T01:13:46;20.50;;;10.75;;
22007;SDS011;11168;56.976;24.168;2022-08-19T01:16:15;18.80;;;10.57;;
22007;SDS011;11168;56.976;24.168;2022-08-19T01:18:43;16.83;;;11.15;;
22007;SDS011;11168;56.976;24.168;2022-08-19T01:21:12;14.50;;;10.93;;
22007;SDS011;11168;56.976;24.168;2022-08-19T01:23:43;25.15;;;10.52;;
22007;SDS011;11168;56.976;24.168;2022-08-19T01:26:12;14.63;;;10.85;;
22007;SDS011;11168;56.976;24.168;2022-08-19T01:28:41;18.38;;;11.20;;
22007;SDS011;11168;56.976;24.168;2022-08-19T01:31:14;17.80;;;10.70;;
22007;SDS011;11168;56.976;24.168;2022-08-19T01:33:54;23.10;;;11.35;;
22007;SDS011;11168;56.976;24.168;2022-08-19T01:36:23;19.52;;;10.93;;
22007;SDS011;11168;56.976;24.168;2022-08-19T01:38:52;16.42;;;10.40;;
22007;SDS011;11168;56.976;24.168;2022-08-19T01:41:20;20.63;;;10.25;;
22007;SDS011;11168;56.976;24.168;2022-08-19T01:43:50;19.35;;;11.70;;
22007;SDS011;11168;56.976;24.168;2022-08-19T01:46:38;16.98;;;11.10;;
22007;SDS011;11168;56.976;24.168;2022-08-19T01:49:06;20.67;;;10.27;;
22007;SDS011;11168;56.976;24.168;2022-08-19T01:51:34;15.05;;;10.45;;
22007;SDS011;11168;56.976;24.168;2022-08-19T01:54:06;20.52;;;11.00;;
22007;SDS011;11168;56.976;24.168;2022-08-19T01:56:33;17.52;;;11.23;;
22007;SDS011;11168;56.976;24.168;2022-08-19T01:59:02;17.13;;;9.88;;
22007;SDS011;11168;56.976;24.168;2022-08-19T02:01:31;22.48;;;10.45;;
22007;SDS011;11168;56.976;24.168;2022-08-19T02:03:58;15.10;;;10.63;;
22007;SDS011;11168;56.976;24.168;2022-08-19T02:06:27;18.40;;;10.18;;
22007;SDS011;11168;56.976;24.168;2022-08-19T02:08:55;14.02;;;10.32;;
22007;SDS011;11168;56.976;24.168;2022-08-19T02:11:27;19.60;;;11.05;;
22007;SDS011;11168;56.976;24.168;2022-08-19T02:13:58;17.45;;;10.90;;
22007;SDS011;11168;56.976;24.168;2022-08-19T02:16:25;16.08;;;10.70;;
22007;SDS011;11168;56.976;24.168;2022-08-19T02:18:52;16.40;;;10.90;;
22007;SDS011;11168;56.976;24.168;2022-08-19T02:21:21;15.25;;;10.68;;
22007;SDS011;11168;56.976;24.168;2022-08-19T02:23:49;15.32;;;10.93;;
22007;SDS011;11168;56.976;24.168;2022-08-19T02:26:17;18.33;;;10.90;;
22007;SDS011;11168;56.976;24.168;2022-08-19T02:28:45;17.25;;;9.80;;
22007;SDS011;11168;56.976;24.168;2022-08-19T02:31:15;16.30;;;10.45;;
22007;SDS011;11168;56.976;24.168;2022-08-19T02:33:44;18.33;;;10.95;;
22007;SDS011;11168;56.976;24.168;2022-08-19T02:36:12;17.77;;;11.00;;
22007;SDS011;11168;56.976;24.168;2022-08-19T02:38:41;20.80;;;10.85;;
22007;SDS011;11168;56.976;24.168;2022-08-19T02:41:14;19.25;;;11.00;;
22007;SDS011;11168;56.976;24.168;2022-08-19T02:43:42;17.17;;;10.95;;
22007;SDS011;11168;56.976;24.168;2022-08-19T02:46:30;15.68;;;10.60;;
22007;SDS011;11168;56.976;24.168;2022-08-19T02:48:59;21.10;;;10.85;;
22007;SDS011;11168;56.976;24.168;2022-08-19T02:51:29;13.38;;;10.50;;
22007;SDS011;11168;56.976;24.168;2022-08-19T02:53:56;18.98;;;11.45;;
22007;SDS011;11168;56.976;24.168;2022-08-19T02:56:26;20.98;;;11.60;;
22007;SDS011;11168;56.976;24.168;2022-08-19T02:58:54;19.83;;;10.73;;
22007;SDS011;11168;56.976;24.168;2022-08-19T03:01:23;17.98;;;11.10;;
22007;SDS011;11168;56.976;24.168;2022-08-19T03:03:51;20.58;;;11.93;;
22007;SDS011;11168;56.976;24.168;2022-08-19T03:06:18;16.95;;;11.00;;
22007;SDS011;11168;56.976;24.168;2022-08-19T03:08:46;16.10;;;10.73;;
22007;SDS011;11168;56.976;24.168;2022-08-19T03:11:25;15.65;;;10.88;;
22007;SDS011;11168;56.976;24.168;2022-08-19T03:13:52;16.02;;;10.85;;
22007;SDS011;11168;56.976;24.168;2022-08-19T03:16:21;12.77;;;11.10;;
22007;SDS011;11168;56.976;24.168;2022-08-19T03:18:49;16.55;;;10.85;;
22007;SDS011;11168;56.976;24.168;2022-08-19T03:21:17;18.13;;;10.85;;
22007;SDS011;11168;56.976;24.168;2022-08-19T03:23:44;17.10;;;11.00;;
22007;SDS011;11168;56.976;24.168;2022-08-19T03:26:12;14.10;;;10.88;;
22007;SDS011;11168;56.976;24.168;2022-08-19T03:28:43;17.83;;;11.20;;
22007;SDS011;11168;56.976;24.168;2022-08-19T03:31:18;14.57;;;10.93;;
22007;SDS011;11168;56.976;24.168;2022-08-19T03:34:08;16.20;;;10.93;;
22007;SDS011;11168;56.976;24.168;2022-08-19T03:36:37;16.77;;;10.85;;
22007;SDS011;11168;56.976;24.168;2022-08-19T03:39:04;19.88;;;11.23;;
22007;SDS011;11168;56.976;24.168;2022-08-19T03:41:35;17.70;;;10.38;;
22007;SDS011;11168;56.976;24.168;2022-08-19T03:44:12;12.75;;;10.30;;
22007;SDS011;11168;56.976;24.168;2022-08-19T03:46:44;18.05;;;11.07;;
22007;SDS011;11168;56.976;24.168;2022-08-19T03:49:12;16.92;;;10.77;;
22007;SDS011;11168;56.976;24.168;2022-08-19T03:51:40;19.35;;;11.05;;
22007;SDS011;11168;56.976;24.168;2022-08-19T03:54:08;16.15;;;11.10;;
22007;SDS011;11168;56.976;24.168;2022-08-19T03:56:36;19.65;;;10.93;;
22007;SDS011;11168;56.976;24.168;2022-08-19T03:59:04;18.05;;;10.98;;
22007;SDS011;11168;56.976;24.168;2022-08-19T04:01:32;15.35;;;10.45;;
22007;SDS011;11168;56.976;24.168;2022-08-19T04:04:00;17.33;;;11.00;;
22007;SDS011;11168;56.976;24.168;2022-08-19T04:06:30;19.23;;;10.68;;
22007;SDS011;11168;56.976;24.168;2022-08-19T04:08:59;15.45;;;9.77;;
22007;SDS011;11168;56.976;24.168;2022-08-19T04:11:28;11.30;;;9.90;;
22007;SDS011;11168;56.976;24.168;2022-08-19T04:14:10;11.90;;;9.95;;
22007;SDS011;11168;56.976;24.168;2022-08-19T04:16:38;14.75;;;10.23;;
22007;SDS011;11168;56.976;24.168;2022-08-19T04:19:06;14.32;;;10.60;;
22007;SDS011;11168;56.976;24.168;2022-08-19T04:21:34;17.52;;;9.52;;
22007;SDS011;11168;56.976;24.168;2022-08-19T04:24:01;16.38;;;10.30;;
22007;SDS011;11168;56.976;24.168;2022-08-19T04:26:31;16.38;;;9.80;;
22007;SDS011;11168;56.976;24.168;2022-08-19T04:29:03;20.88;;;10.13;;
22007;SDS011;11168;56.976;24.168;2022-08-19T04:31:37;13.68;;;10.00;;
22007;SDS011;11168;56.976;24.168;2022-08-19T04:34:05;16.48;;;10.25;;
22007;SDS011;11168;56.976;24.168;2022-08-19T04:36:34;16.77;;;9.68;;
22007;SDS011;11168;56.976;24.168;2022-08-19T04:39:06;15.77;;;9.55;;
22007;SDS011;11168;56.976;24.168;2022-08-19T04:41:33;18.05;;;9.88;;
22007;SDS011;11168;56.976;24.168;2022-08-19T04:44:19;20.40;;;9.70;;
22007;SDS011;11168;56.976;24.168;2022-08-19T04:46:48;15.82;;;9.70;;
22007;SDS011;11168;56.976;24.168;2022-08-19T04:49:17;16.40;;;9.38;;
22007;SDS011;11168;56.976;24.168;2022-08-19T04:51:46;21.30;;;10.20;;
22007;SDS011;11168;56.976;24.168;2022-08-19T04:56:44;17.88;;;9.20;;
22007;SDS011;11168;56.976;24.168;2022-08-19T04:59:11;16.38;;;10.02;;
22007;SDS011;11168;56.976;24.168;2022-08-19T05:01:42;11.93;;;8.65;;
22007;SDS011;11168;56.976;24.168;2022-08-19T05:04:09;18.63;;;9.23;;
22007;SDS011;11168;56.976;24.168;2022-08-19T05:06:37;15.25;;;9.10;;
22007;SDS011;11168;56.976;24.168;2022-08-19T05:09:04;14.57;;;8.80;;
22007;SDS011;11168;56.976;24.168;2022-08-19T05:11:33;13.23;;;9.30;;
22007;SDS011;11168;56.976;24.168;2022-08-19T05:14:01;12.90;;;8.32;;
22007;SDS011;11168;56.976;24.168;2022-08-19T05:16:28;19.77;;;8.88;;
22007;SDS011;11168;56.976;24.168;2022-08-19T05:18:55;18.83;;;8.85;;
22007;SDS011;11168;56.976;24.168;2022-08-19T05:21:41;16.77;;;8.95;;
22007;SDS011;11168;56.976;24.168;2022-08-19T05:24:28;15.20;;;8.90;;
22007;SDS011;11168;56.976;24.168;2022-08-19T05:26:56;16.75;;;8.90;;
22007;SDS011;11168;56.976;24.168;2022-08-19T05:29:25;16.55;;;8.50;;
22007;SDS011;11168;56.976;24.168;2022-08-19T05:32:03;15.60;;;8.60;;
22007;SDS011;11168;56.976;24.168;2022-08-19T05:34:31;10.63;;;8.40;;
22007;SDS011;11168;56.976;24.168;2022-08-19T05:37:00;14.70;;;8.15;;
22007;SDS011;11168;56.976;24.168;2022-08-19T05:39:29;14.00;;;8.05;;
22007;SDS011;11168;56.976;24.168;2022-08-19T05:41:58;17.52;;;8.60;;
22007;SDS011;11168;56.976;24.168;2022-08-19T05:44:26;17.85;;;8.10;;
22007;SDS011;11168;56.976;24.168;2022-08-19T05:47:01;14.85;;;7.85;;
22007;SDS011;11168;56.976;24.168;2022-08-19T05:49:29;13.43;;;8.05;;
22007;SDS011;11168;56.976;24.168;2022-08-19T05:51:56;21.95;;;8.43;;
22007;SDS011;11168;56.976;24.168;2022-08-19T05:54:25;17.02;;;7.78;;
22007;SDS011;11168;56.976;24.168;2022-08-19T05:56:53;14.63;;;7.78;;
22007;SDS011;11168;56.976;24.168;2022-08-19T05:59:20;12.85;;;7.82;;
22007;SDS011;11168;56.976;24.168;2022-08-19T06:01:52;13.70;;;7.53;;
22007;SDS011;11168;56.976;24.168;2022-08-19T06:04:23;13.63;;;7.43;;
22007;SDS011;11168;56.976;24.168;2022-08-19T06:06:52;17.85;;;7.90;;
22007;SDS011;11168;56.976;24.168;2022-08-19T06:09:20;10.70;;;7.15;;
22007;SDS011;11168;56.976;24.168;2022-08-19T06:11:51;62.08;;;10.15;;
22007;SDS011;11168;56.976;24.168;2022-08-19T06:14:27;102.18;;;13.93;;
22007;SDS011;11168;56.976;24.168;2022-08-19T06:16:55;33.67;;;8.75;;
22007;SDS011;11168;56.976;24.168;2022-08-19T06:19:23;16.88;;;7.63;;
22007;SDS011;11168;56.976;24.168;2022-08-19T06:21:51;24.83;;;8.02;;
22007;SDS011;11168;56.976;24.168;2022-08-19T06:24:20;12.52;;;7.60;;
22007;SDS011;11168;56.976;24.168;2022-08-19T06:26:50;15.00;;;7.85;;
22007;SDS011;11168;56.976;24.168;2022-08-19T06:29:24;16.05;;;7.60;;
22007;SDS011;11168;56.976;24.168;2022-08-19T06:31:53;13.50;;;7.30;;
22007;SDS011;11168;56.976;24.168;2022-08-19T06:34:20;15.38;;;7.30;;
22007;SDS011;11168;56.976;24.168;2022-08-19T06:36:48;21.63;;;7.13;;
22007;SDS011;11168;56.976;24.168;2022-08-19T06:39:24;17.27;;;7.30;;
22007;SDS011;11168;56.976;24.168;2022-08-19T06:41:53;14.65;;;7.25;;
22007;SDS011;11168;56.976;24.168;2022-08-19T06:44:25;21.20;;;7.68;;
22007;SDS011;11168;56.976;24.168;2022-08-19T06:46:55;14.25;;;6.78;;
22007;SDS011;11168;56.976;24.168;2022-08-19T06:49:23;10.75;;;7.00;;
22007;SDS011;11168;56.976;24.168;2022-08-19T06:51:53;13.50;;;6.43;;
22007;SDS011;11168;56.976;24.168;2022-08-19T06:54:23;20.10;;;6.60;;
22007;SDS011;11168;56.976;24.168;2022-08-19T06:56:59;14.63;;;6.60;;
22007;SDS011;11168;56.976;24.168;2022-08-19T06:59:30;10.70;;;6.68;;
22007;SDS011;11168;56.976;24.168;2022-08-19T07:02:00;16.33;;;7.10;;
22007;SDS011;11168;56.976;24.168;2022-08-19T07:04:29;10.95;;;6.65;;
22007;SDS011;11168;56.976;24.168;2022-08-19T07:07:01;15.65;;;6.35;;
22007;SDS011;11168;56.976;24.168;2022-08-19T07:09:45;16.50;;;6.75;;
22007;SDS011;11168;56.976;24.168;2022-08-19T07:12:25;9.75;;;5.55;;
22007;SDS011;11168;56.976;24.168;2022-08-19T07:14:56;14.32;;;6.45;;
22007;SDS011;11168;56.976;24.168;2022-08-19T07:17:24;9.48;;;5.85;;
22007;SDS011;11168;56.976;24.168;2022-08-19T07:19:52;12.68;;;5.78;;
22007;SDS011;11168;56.976;24.168;2022-08-19T07:22:20;9.07;;;5.70;;
22007;SDS011;11168;56.976;24.168;2022-08-19T07:24:50;10.95;;;5.50;;
22007;SDS011;11168;56.976;24.168;2022-08-19T07:27:18;12.88;;;6.00;;
22007;SDS011;11168;56.976;24.168;2022-08-19T07:29:50;11.38;;;5.43;;
22007;SDS011;11168;56.976;24.168;2022-08-19T07:32:22;10.90;;;5.47;;
22007;SDS011;11168;56.976;24.168;2022-08-19T07:34:52;14.13;;;5.68;;
22007;SDS011;11168;56.976;24.168;2022-08-19T07:37:19;11.68;;;5.78;;
22007;SDS011;11168;56.976;24.168;2022-08-19T07:39:46;9.70;;;5.18;;
22007;SDS011;11168;56.976;24.168;2022-08-19T07:42:14;12.27;;;5.70;;
22007;SDS011;11168;56.976;24.168;2022-08-19T07:44:41;12.40;;;5.03;;
22007;SDS011;11168;56.976;24.168;2022-08-19T07:47:16;8.32;;;5.90;;
22007;SDS011;11168;56.976;24.168;2022-08-19T07:50:05;12.25;;;6.25;;
22007;SDS011;11168;56.976;24.168;2022-08-19T07:52:33;11.38;;;6.10;;
22007;SDS011;11168;56.976;24.168;2022-08-19T07:55:02;11.35;;;6.38;;
22007;SDS011;11168;56.976;24.168;2022-08-19T07:57:30;16.50;;;6.80;;
22007;SDS011;11168;56.976;24.168;2022-08-19T07:59:58;14.70;;;6.38;;
22007;SDS011;11168;56.976;24.168;2022-08-19T08:02:25;13.18;;;6.38;;
22007;SDS011;11168;56.976;24.168;2022-08-19T08:04:52;14.43;;;6.22;;
22007;SDS011;11168;56.976;24.168;2022-08-19T08:07:38;15.48;;;6.40;;
22007;SDS011;11168;56.976;24.168;2022-08-19T08:10:24;12.77;;;6.30;;
22007;SDS011;11168;56.976;24.168;2022-08-19T08:12:52;14.30;;;6.00;;
22007;SDS011;11168;56.976;24.168;2022-08-19T08:15:35;9.68;;;5.50;;
22007;SDS011;11168;56.976;24.168;2022-08-19T08:18:08;11.82;;;5.63;;
22007;SDS011;11168;56.976;24.168;2022-08-19T08:20:35;14.10;;;5.25;;
22007;SDS011;11168;56.976;24.168;2022-08-19T08:23:02;12.90;;;5.15;;
22007;SDS011;11168;56.976;24.168;2022-08-19T08:25:48;14.60;;;5.55;;
22007;SDS011;11168;56.976;24.168;2022-08-19T08:28:16;10.65;;;4.95;;
22007;SDS011;11168;56.976;24.168;2022-08-19T08:30:44;15.05;;;5.50;;
22007;SDS011;11168;56.976;24.168;2022-08-19T08:33:24;11.65;;;5.20;;
22007;SDS011;11168;56.976;24.168;2022-08-19T08:36:06;10.52;;;4.90;;
22007;SDS011;11168;56.976;24.168;2022-08-19T08:38:34;13.52;;;4.72;;
22007;SDS011;11168;56.976;24.168;2022-08-19T08:41:09;12.82;;;4.97;;
22007;SDS011;11168;56.976;24.168;2022-08-19T08:43:40;8.80;;;4.65;;
22007;SDS011;11168;56.976;24.168;2022-08-19T08:46:11;12.98;;;4.88;;
22007;SDS011;11168;56.976;24.168;2022-08-19T08:49:00;12.23;;;5.13;;
22007;SDS011;11168;56.976;24.168;2022-08-19T08:51:34;11.27;;;4.80;;
22007;SDS011;11168;56.976;24.168;2022-08-19T08:54:04;17.40;;;5.00;;
22007;SDS011;11168;56.976;24.168;2022-08-19T08:56:35;5.97;;;4.22;;
22007;SDS011;11168;56.976;24.168;2022-08-19T08:59:05;15.23;;;5.13;;
22007;SDS011;11168;56.976;24.168;2022-08-19T09:01:34;9.15;;;5.15;;
22007;SDS011;11168;56.976;24.168;2022-08-19T09:04:05;11.85;;;5.25;;
22007;SDS011;11168;56.976;24.168;2022-08-19T09:17:00;13.02;;;4.30;;
22007;SDS011;11168;56.976;24.168;2022-08-19T09:19:30;12.27;;;4.50;;
22007;SDS011;11168;56.976;24.168;2022-08-19T09:21:57;8.23;;;4.40;;
22007;SDS011;11168;56.976;24.168;2022-08-19T09:24:26;9.40;;;4.10;;
22007;SDS011;11168;56.976;24.168;2022-08-19T09:26:56;14.23;;;4.87;;
22007;SDS011;11168;56.976;24.168;2022-08-19T09:29:23;11.25;;;4.95;;
22007;SDS011;11168;56.976;24.168;2022-08-19T09:31:51;8.68;;;4.32;;
22007;SDS011;11168;56.976;24.168;2022-08-19T09:34:18;12.57;;;4.90;;
22007;SDS011;11168;56.976;24.168;2022-08-19T09:36:47;12.95;;;4.95;;
22007;SDS011;11168;56.976;24.168;2022-08-19T09:39:19;9.82;;;4.18;;
22007;SDS011;11168;56.976;24.168;2022-08-19T09:41:47;10.95;;;4.22;;
22007;SDS011;11168;56.976;24.168;2022-08-19T09:44:16;9.25;;;3.80;;
22007;SDS011;11168;56.976;24.168;2022-08-19T09:46:44;13.70;;;4.00;;
22007;SDS011;11168;56.976;24.168;2022-08-19T09:49:14;12.20;;;4.05;;
22007;SDS011;11168;56.976;24.168;2022-08-19T09:51:43;13.93;;;3.92;;
22007;SDS011;11168;56.976;24.168;2022-08-19T09:54:16;14.68;;;3.85;;
22007;SDS011;11168;56.976;24.168;2022-08-19T09:56:50;8.50;;;3.72;;
22007;SDS011;11168;56.976;24.168;2022-08-19T09:59:18;13.38;;;4.03;;
22007;SDS011;11168;56.976;24.168;2022-08-19T10:01:45;8.73;;;3.90;;
22007;SDS011;11168;56.976;24.168;2022-08-19T10:04:13;12.93;;;3.88;;
22007;SDS011;11168;56.976;24.168;2022-08-19T10:06:48;11.18;;;3.78;;
22007;SDS011;11168;56.976;24.168;2022-08-19T10:09:19;8.80;;;3.60;;
22007;SDS011;11168;56.976;24.168;2022-08-19T10:11:59;9.98;;;3.45;;
22007;SDS011;11168;56.976;24.168;2022-08-19T10:14:28;14.02;;;4.35;;
22007;SDS011;11168;56.976;24.168;2022-08-19T10:16:55;10.85;;;3.40;;
22007;SDS011;11168;56.976;24.168;2022-08-19T10:19:24;6.78;;;3.30;;
22007;SDS011;11168;56.976;24.168;2022-08-19T10:21:52;11.90;;;3.60;;
22007;SDS011;11168;56.976;24.168;2022-08-19T10:24:25;9.35;;;3.70;;
22007;SDS011;11168;56.976;24.168;2022-08-19T10:26:54;7.38;;;3.28;;
22007;SDS011;11168;56.976;24.168;2022-08-19T10:29:25;7.07;;;3.30;;
22007;SDS011;11168;56.976;24.168;2022-08-19T10:31:58;8.98;;;3.38;;
22007;SDS011;11168;56.976;24.168;2022-08-19T10:34:28;7.28;;;3.60;;
22007;SDS011;11168;56.976;24.168;2022-08-19T10:36:57;11.10;;;3.80;;
22007;SDS011;11168;56.976;24.168;2022-08-19T10:39:27;7.10;;;3.70;;
22007;SDS011;11168;56.976;24.168;2022-08-19T10:42:09;5.72;;;3.85;;
22007;SDS011;11168;56.976;24.168;2022-08-19T10:44:40;7.72;;;3.67;;
22007;SDS011;11168;56.976;24.168;2022-08-19T10:47:07;7.25;;;4.13;;
22007;SDS011;11168;56.976;24.168;2022-08-19T10:49:50;5.93;;;3.58;;
22007;SDS011;11168;56.976;24.168;2022-08-19T10:52:38;5.95;;;3.80;;
22007;SDS011;11168;56.976;24.168;2022-08-19T10:55:15;6.75;;;4.15;;
22007;SDS011;11168;56.976;24.168;2022-08-19T10:58:02;14.02;;;4.00;;
22007;SDS011;11168;56.976;24.168;2022-08-19T11:00:29;7.82;;;3.63;;
22007;SDS011;11168;56.976;24.168;2022-08-19T11:02:57;11.40;;;3.90;;
22007;SDS011;11168;56.976;24.168;2022-08-19T11:05:25;10.10;;;4.28;;
22007;SDS011;11168;56.976;24.168;2022-08-19T11:07:52;11.15;;;4.43;;
22007;SDS011;11168;56.976;24.168;2022-08-19T11:10:20;9.27;;;4.35;;
22007;SDS011;11168;56.976;24.168;2022-08-19T11:12:48;10.40;;;4.32;;
22007;SDS011;11168;56.976;24.168;2022-08-19T11:15:19;11.20;;;4.75;;
22007;SDS011;11168;56.976;24.168;2022-08-19T11:17:46;12.05;;;4.60;;
22007;SDS011;11168;56.976;24.168;2022-08-19T11:20:14;9.55;;;4.22;;
22007;SDS011;11168;56.976;24.168;2022-08-19T11:22:41;11.00;;;4.53;;
22007;SDS011;11168;56.976;24.168;2022-08-19T11:25:09;9.43;;;4.03;;
22007;SDS011;11168;56.976;24.168;2022-08-19T11:27:38;8.07;;;4.38;;
22007;SDS011;11168;56.976;24.168;2022-08-19T11:30:09;18.88;;;4.70;;
22007;SDS011;11168;56.976;24.168;2022-08-19T11:32:38;14.82;;;4.60;;
22007;SDS011;11168;56.976;24.168;2022-08-19T11:35:11;9.45;;;3.88;;
22007;SDS011;11168;56.976;24.168;2022-08-19T11:37:38;7.13;;;3.92;;
22007;SDS011;11168;56.976;24.168;2022-08-19T11:40:06;12.98;;;3.95;;
22007;SDS011;11168;56.976;24.168;2022-08-19T11:42:33;17.33;;;4.30;;
22007;SDS011;11168;56.976;24.168;2022-08-19T11:45:19;7.75;;;4.00;;
22007;SDS011;11168;56.976;24.168;2022-08-19T11:47:47;9.45;;;4.07;;
22007;SDS011;11168;56.976;24.168;2022-08-19T11:50:15;8.50;;;3.90;;
22007;SDS011;11168;56.976;24.168;2022-08-19T11:52:42;8.10;;;4.15;;
22007;SDS011;11168;56.976;24.168;2022-08-19T11:55:11;6.65;;;4.05;;
22007;SDS011;11168;56.976;24.168;2022-08-19T11:57:38;9.27;;;4.70;;
22007;SDS011;11168;56.976;24.168;2022-08-19T12:00:07;7.05;;;4.13;;
22007;SDS011;11168;56.976;24.168;2022-08-19T12:02:35;12.50;;;4.63;;
22007;SDS011;11168;56.976;24.168;2022-08-19T12:05:03;9.70;;;4.53;;
22007;SDS011;11168;56.976;24.168;2022-08-19T12:07:37;9.18;;;4.32;;
22007;SDS011;11168;56.976;24.168;2022-08-19T12:10:04;8.18;;;4.22;;
22007;SDS011;11168;56.976;24.168;2022-08-19T12:12:33;5.47;;;4.00;;
22007;SDS011;11168;56.976;24.168;2022-08-19T12:15:00;9.90;;;4.10;;
22007;SDS011;11168;56.976;24.168;2022-08-19T12:17:28;8.70;;;4.20;;
22007;SDS011;11168;56.976;24.168;2022-08-19T12:19:57;11.60;;;4.15;;
22007;SDS011;11168;56.976;24.168;2022-08-19T12:22:24;10.43;;;4.68;;
22007;SDS011;11168;56.976;24.168;2022-08-19T12:24:51;10.93;;;4.80;;
22007;SDS011;11168;56.976;24.168;2022-08-19T12:27:20;8.82;;;4.60;;
22007;SDS011;11168;56.976;24.168;2022-08-19T12:30:07;10.23;;;4.25;;
22007;SDS011;11168;56.976;24.168;2022-08-19T12:32:35;8.55;;;4.53;;
22007;SDS011;11168;56.976;24.168;2022-08-19T12:35:03;9.73;;;4.43;;
22007;SDS011;11168;56.976;24.168;2022-08-19T12:37:31;6.68;;;4.90;;
22007;SDS011;11168;56.976;24.168;2022-08-19T12:39:58;9.02;;;5.10;;
22007;SDS011;11168;56.976;24.168;2022-08-19T12:42:26;8.82;;;4.70;;
22007;SDS011;11168;56.976;24.168;2022-08-19T12:44:54;11.80;;;4.85;;
22007;SDS011;11168;56.976;24.168;2022-08-19T12:47:21;11.88;;;5.28;;
22007;SDS011;11168;56.976;24.168;2022-08-19T12:49:49;9.55;;;4.97;;
22007;SDS011;11168;56.976;24.168;2022-08-19T12:52:21;7.95;;;5.07;;
22007;SDS011;11168;56.976;24.168;2022-08-19T12:54:49;8.93;;;4.95;;
22007;SDS011;11168;56.976;24.168;2022-08-19T12:57:20;10.85;;;4.85;;
22007;SDS011;11168;56.976;24.168;2022-08-19T12:59:58;7.45;;;4.75;;
22007;SDS011;11168;56.976;24.168;2022-08-19T13:02:26;10.73;;;5.25;;
22007;SDS011;11168;56.976;24.168;2022-08-19T13:04:53;9.85;;;4.32;;
22007;SDS011;11168;56.976;24.168;2022-08-19T13:07:20;10.85;;;4.80;;
22007;SDS011;11168;56.976;24.168;2022-08-19T13:09:50;13.70;;;4.80;;
22007;SDS011;11168;56.976;24.168;2022-08-19T13:12:18;7.32;;;4.35;;
22007;SDS011;11168;56.976;24.168;2022-08-19T13:14:50;13.13;;;4.72;;
22007;SDS011;11168;56.976;24.168;2022-08-19T13:17:18;8.25;;;4.43;;
22007;SDS011;11168;56.976;24.168;2022-08-19T13:19:45;8.98;;;4.40;;
22007;SDS011;11168;56.976;24.168;2022-08-19T13:22:12;8.65;;;3.95;;
22007;SDS011;11168;56.976;24.168;2022-08-19T13:24:40;9.00;;;4.80;;
22007;SDS011;11168;56.976;24.168;2022-08-19T13:27:12;10.15;;;4.20;;
22007;SDS011;11168;56.976;24.168;2022-08-19T13:29:42;8.10;;;4.28;;
22007;SDS011;11168;56.976;24.168;2022-08-19T13:32:28;5.78;;;4.28;;
22007;SDS011;11168;56.976;24.168;2022-08-19T13:35:15;11.68;;;4.53;;
22007;SDS011;11168;56.976;24.168;2022-08-19T13:37:43;11.20;;;4.72;;
22007;SDS011;11168;56.976;24.168;2022-08-19T13:40:19;13.55;;;4.30;;
22007;SDS011;11168;56.976;24.168;2022-08-19T13:42:50;13.02;;;4.82;;
22007;SDS011;11168;56.976;24.168;2022-08-19T13:45:19;9.07;;;4.65;;
22007;SDS011;11168;56.976;24.168;2022-08-19T13:47:47;8.90;;;4.32;;
22007;SDS011;11168;56.976;24.168;2022-08-19T13:50:16;9.25;;;4.68;;
22007;SDS011;11168;56.976;24.168;2022-08-19T13:52:43;13.63;;;4.70;;
22007;SDS011;11168;56.976;24.168;2022-08-19T13:55:11;6.95;;;4.32;;
22007;SDS011;11168;56.976;24.168;2022-08-19T13:57:39;7.75;;;4.60;;
22007;SDS011;11168;56.976;24.168;2022-08-19T14:00:08;12.38;;;4.45;;
22007;SDS011;11168;56.976;24.168;2022-08-19T14:02:37;8.95;;;4.28;;
22007;SDS011;11168;56.976;24.168;2022-08-19T14:05:05;7.13;;;4.68;;
22007;SDS011;11168;56.976;24.168;2022-08-19T14:07:33;8.50;;;4.03;;
22007;SDS011;11168;56.976;24.168;2022-08-19T14:10:00;11.73;;;4.28;;
22007;SDS011;11168;56.976;24.168;2022-08-19T14:12:28;8.60;;;4.43;;
22007;SDS011;11168;56.976;24.168;2022-08-19T14:14:55;12.80;;;4.53;;
22007;SDS011;11168;56.976;24.168;2022-08-19T14:17:22;10.10;;;4.20;;
22007;SDS011;11168;56.976;24.168;2022-08-19T14:19:57;16.13;;;4.60;;
22007;SDS011;11168;56.976;24.168;2022-08-19T14:22:36;6.07;;;4.32;;
22007;SDS011;11168;56.976;24.168;2022-08-19T14:25:05;12.50;;;4.30;;
22007;SDS011;11168;56.976;24.168;2022-08-19T14:27:33;10.27;;;4.53;;
22007;SDS011;11168;56.976;24.168;2022-08-19T14:30:01;10.10;;;4.78;;
22007;SDS011;11168;56.976;24.168;2022-08-19T14:32:29;13.35;;;4.53;;
22007;SDS011;11168;56.976;24.168;2022-08-19T14:34:56;13.55;;;4.68;;
22007;SDS011;11168;56.976;24.168;2022-08-19T14:37:23;13.93;;;4.55;;
22007;SDS011;11168;56.976;24.168;2022-08-19T14:39:53;10.70;;;4.60;;
22007;SDS011;11168;56.976;24.168;2022-08-19T14:42:21;8.57;;;4.18;;
22007;SDS011;11168;56.976;24.168;2022-08-19T14:44:48;14.80;;;4.90;;
22007;SDS011;11168;56.976;24.168;2022-08-19T14:47:15;10.40;;;4.65;;
22007;SDS011;11168;56.976;24.168;2022-08-19T14:49:44;8.10;;;4.80;;
22007;SDS011;11168;56.976;24.168;2022-08-19T14:52:13;12.10;;;4.80;;
22007;SDS011;11168;56.976;24.168;2022-08-19T14:54:41;16.38;;;4.85;;